ADDS METAR Data INFO
IDs: Format: Raw Decoded Include TAF

Data at: 0301 UTC 21 Jan 2018

KEQA 210255Z AUTO 00000KT 10SM CLR 08/04 A2976 RMK AO2
KEQA 210235Z AUTO 00000KT 10SM CLR 08/04 A2977 RMK AO2
KEQA 210215Z AUTO 00000KT 10SM CLR 09/04 A2977 RMK AO2
KEQA 210155Z AUTO 00000KT 10SM CLR 09/05 A2977 RMK AO2
KEQA 210135Z AUTO 00000KT 10SM CLR 09/04 A2977 RMK AO2
KEQA 210115Z AUTO 00000KT 10SM CLR 10/05 A2977 RMK AO2
KEQA 210055Z AUTO 00000KT 10SM CLR 10/05 A2977 RMK AO2
KEQA 210035Z AUTO 00000KT 10SM CLR 11/05 A2977 RMK AO2
KEQA 210015Z AUTO 00000KT 10SM CLR 11/05 A2977 RMK AO2
KEQA 202355Z AUTO 00000KT 10SM CLR 12/05 A2977 RMK AO2
KEQA 202335Z AUTO 00000KT 10SM CLR 13/06 A2976 RMK AO2
KEQA 202315Z AUTO 00000KT 10SM CLR 15/06 A2977 RMK AO2
KEQA 202255Z AUTO 00000KT 10SM CLR 16/06 A2977 RMK AO2
KEQA 202235Z AUTO 18012KT 10SM CLR 17/06 A2977 RMK AO2
KEQA 202215Z AUTO 19014G19KT 10SM CLR 17/06 A2976 RMK AO2
KEQA 202155Z AUTO 18011G17KT 10SM CLR 17/06 A2976 RMK AO2
KEQA 202135Z AUTO 19013G16KT 10SM CLR 17/06 A2976 RMK AO2
KEQA 202115Z AUTO 19015G20KT 10SM CLR 17/06 A2976 RMK AO2
KEQA 202055Z AUTO 19014G19KT 10SM CLR 17/06 A2976 RMK AO2
KEQA 202035Z AUTO 20014G18KT 10SM CLR 16/06 A2976 RMK AO2
KEQA 202015Z AUTO 17013G18KT 10SM CLR 16/06 A2977 RMK AO2
KEQA 201955Z AUTO 21013G20KT 10SM CLR 16/06 A2977 RMK AO2
KEQA 201935Z AUTO 18015G19KT 10SM CLR 15/06 A2977 RMK AO2
KEQA 201915Z AUTO 20014G17KT 10SM SCT023 15/06 A2978 RMK AO2
KEQA 201855Z AUTO 19019G23KT 10SM BKN023 15/06 A2979 RMK AO2
KEQA 201835Z AUTO 21014G18KT 10SM OVC023 13/06 A2980 RMK AO2
KEQA 201815Z AUTO 19016G22KT 10SM OVC021 14/06 A2981 RMK AO2
KEQA 201755Z AUTO 20014KT 10SM OVC021 13/06 A2982 RMK AO2
KEQA 201735Z AUTO 19015G21KT 10SM OVC019 12/06 A2984 RMK AO2
KEQA 201715Z AUTO 20015G20KT 10SM OVC019 12/07 A2984 RMK AO2
KEQA 201655Z AUTO 19014G20KT 10SM OVC017 12/07 A2984 RMK AO2
KEQA 201635Z AUTO 19018G21KT 10SM OVC017 11/07 A2984 RMK AO2
KEQA 201615Z AUTO 19012G20KT 10SM OVC017 11/07 A2984 RMK AO2
KEQA 201555Z AUTO 19017G21KT 10SM OVC017 11/07 A2985 RMK AO2
KEQA 201535Z AUTO 18014KT 10SM OVC019 10/07 A2985 RMK AO2
KEQA 201515Z AUTO 19014KT 10SM OVC019 10/07 A2985 RMK AO2
KEQA 201455Z AUTO 19012G15KT 10SM OVC017 10/07 A2984 RMK AO2
KEQA 201435Z AUTO 19010G14KT 10SM OVC017 10/07 A2984 RMK AO2
KEQA 201415Z AUTO 19012G15KT 10SM OVC017 10/07 A2984 RMK AO2
KEQA 201355Z AUTO 18012G15KT 10SM OVC017 10/07 A2984 RMK AO2
KEQA 201335Z AUTO 18011KT 10SM OVC017 10/07 A2984 RMK AO2
KEQA 201315Z AUTO 18003KT 10SM OVC017 10/07 A2983 RMK AO2
KEQA 201255Z AUTO 19009G14KT 10SM OVC015 10/07 A2983 RMK AO2
KEQA 201235Z AUTO 19012G16KT 10SM OVC015 10/07 A2982 RMK AO2
KEQA 201215Z AUTO 19010G14KT 10SM OVC015 10/07 A2982 RMK AO2
KEQA 201155Z AUTO 19013G17KT 10SM OVC015 10/07 A2982 RMK AO2
KEQA 201135Z AUTO 19014G17KT 10SM OVC013 10/07 A2981 RMK AO2
KEQA 201115Z AUTO 20014G20KT 10SM OVC013 10/07 A2981 RMK AO2
KEQA 201055Z AUTO 20016G19KT 10SM OVC011 10/07 A2982 RMK AO2
KEQA 201035Z AUTO 20012G20KT 10SM OVC011 10/07 A2982 RMK AO2
KEQA 201015Z AUTO 19014G19KT 10SM OVC011 10/07 A2981 RMK AO2
KEQA 200955Z AUTO 19016G20KT 10SM OVC011 10/07 A2981 RMK AO2
KEQA 200935Z AUTO 19018G23KT 10SM OVC011 09/07 A2981 RMK AO2
KEQA 200915Z AUTO 19014KT 10SM OVC009 08/07 A2982 RMK AO2
KEQA 200855Z AUTO 19014G21KT 10SM OVC009 08/06 A2982 RMK AO2
KEQA 200835Z AUTO 19015KT 10SM OVC009 08/06 A2982 RMK AO2
KEQA 200815Z AUTO 19014KT 10SM OVC009 07/06 A2982 RMK AO2
KEQA 200755Z AUTO 19013KT 10SM OVC011 07/05 A2983 RMK AO2
KEQA 200735Z AUTO 18012KT 10SM BKN013 06/04 A2983 RMK AO2
KEQA 200715Z AUTO 18003KT 10SM CLR 06/03 A2982 RMK AO2
KEQA 200655Z AUTO 18013KT 10SM CLR 06/03 A2983 RMK AO2
KEQA 200635Z AUTO 18012G16KT 10SM CLR 06/02 A2983 RMK AO2
KEQA 200615Z AUTO 19012KT 10SM CLR 06/02 A2983 RMK AO2
KEQA 200555Z AUTO 18013KT 10SM CLR 07/02 A2982 RMK AO2
KEQA 200535Z AUTO 18013KT 10SM CLR 07/01 A2983 RMK AO2
KEQA 200515Z AUTO 19012G17KT 10SM CLR 07/01 A2983 RMK AO2
KEQA 200455Z AUTO 19014G17KT 10SM CLR 07/00 A2983 RMK AO2
KEQA 200435Z AUTO 19013KT 10SM CLR 07/00 A2983 RMK AO2
KEQA 200415Z AUTO 19012G16KT 10SM CLR 07/00 A2983 RMK AO2
KEQA 200355Z AUTO 19016KT 10SM CLR 07/M01 A2982 RMK AO2
KEQA 200335Z AUTO 19015KT 10SM CLR 08/M01 A2981 RMK AO2
KEQA 200315Z AUTO 19015KT 10SM CLR 08/M02 A2981 RMK AO2
KEQA 200255Z AUTO 19016KT 10SM CLR 08/M02 A2981 RMK AO2
KEQA 200235Z AUTO 18017G21KT 10SM CLR 08/M03 A2980 RMK AO2
KEQA 200215Z AUTO 18015KT 10SM CLR 08/M03 A2981 RMK AO2
KEQA 200155Z AUTO 18016KT 10SM CLR 08/M03 A2980 RMK AO2
KEQA 200135Z AUTO 19014KT 10SM CLR 08/M04 A2981 RMK AO2
KEQA 200115Z AUTO 19014G19KT 10SM CLR 10/M04 A2981 RMK AO2
KEQA 200055Z AUTO 18014G17KT 10SM CLR 10/M04 A2980 RMK AO2
KEQA 200035Z AUTO 17013KT 10SM CLR 09/M04 A2980 RMK AO2
KEQA 200015Z AUTO 18012KT 10SM CLR 10/M04 A2980 RMK AO2
KEQA 192355Z AUTO 00000KT 10SM CLR 09/M04 A2980 RMK AO2
KEQA 192335Z AUTO 00000KT 10SM CLR 10/M05 A2979 RMK AO2
KEQA 192315Z AUTO 18011G15KT 10SM CLR 12/M05 A2979 RMK AO2
KEQA 192255Z AUTO 19013KT 10SM CLR 13/M05 A2979 RMK AO2
KEQA 192235Z AUTO 19012G18KT 10SM CLR 13/M06 A2979 RMK AO2
KEQA 192215Z AUTO 19015G20KT 10SM CLR 14/M06 A2979 RMK AO2
KEQA 192155Z AUTO 19016G22KT 10SM CLR 15/M06 A2979 RMK AO2
KEQA 192135Z AUTO 19013G19KT 10SM CLR 15/M06 A2979 RMK AO2
KEQA 192115Z AUTO 20016G21KT 10SM CLR 14/M06 A2980 RMK AO2
KEQA 192055Z AUTO 20016G26KT 10SM CLR 14/M06 A2980 RMK AO2
KEQA 192035Z AUTO 20018G22KT 10SM CLR 15/M06 A2981 RMK AO2
KEQA 192015Z AUTO 20018G23KT 10SM CLR 13/M06 A2982 RMK AO2
KEQA 191955Z AUTO 20014G22KT 10SM CLR 13/M06 A2982 RMK AO2
KEQA 191935Z AUTO 20021G25KT 10SM CLR 13/M06 A2983 RMK AO2
KEQA 191915Z AUTO 19017G24KT 10SM CLR 13/M06 A2984 RMK AO2
KEQA 191855Z AUTO 20019G24KT 10SM CLR 12/M06 A2985 RMK AO2
KEQA 191835Z AUTO 20018G24KT 10SM CLR 11/M06 A2986 RMK AO2
KEQA 191815Z AUTO 20018G21KT 10SM CLR 11/M06 A2988 RMK AO2
KEQA 191755Z AUTO 20021KT 10SM CLR 10/M06 A2990 RMK AO2
KEQA 191735Z AUTO 20016G21KT 10SM CLR 08/M06 A2992 RMK AO2
KEQA 191715Z AUTO 20019KT 10SM CLR 07/M06 A2993 RMK AO2
KEQA 191655Z AUTO 20014G17KT 10SM CLR 06/M06 A2994 RMK AO2
KEQA 191635Z AUTO 20014KT 10SM CLR 05/M06 A2995 RMK AO2
KEQA 191615Z AUTO 21013KT 10SM CLR 05/M06 A2996 RMK AO2
KEQA 191555Z AUTO 21012G17KT 10SM CLR 03/M06 A2996 RMK AO2
KEQA 191535Z AUTO 21011KT 10SM CLR 02/M07 A2995 RMK AO2
KEQA 191515Z AUTO 20011G14KT 10SM CLR 01/M07 A2995 RMK AO2